General Aviation Weather

Text Reports

Enter one or more of the following location identifiers separated by a space:

Zip Code, Four-Character ICAO or Three-Character IATA airport codes.

METAR - Aviation Routine Weather Report
LTCF - Kars,
Updated at 2:50 PM GMT on September 04, 2015 (5:50 PM EEST):
METAR LTCF 041450Z 14014KT 9999 SCT035 25/03 Q1021
TAF - Terminal Area Forecast
LTCF - Kars,
Updated at 2:50 PM GMT on September 04, 2015 (5:50 PM EEST):
No TAF is currently available for this location.
Decoded:
No decoded TAF is available.
PIREP - Pilot Weather Report
LTCF - Kars,
Updated at 2:50 PM GMT on September 04, 2015 (5:50 PM EEST):
No PIREP is currently available for this location.
AIRMET - Airmens Meteorological Information
LTCF - Kars,
Updated at 2:50 PM GMT on September 04, 2015 (5:50 PM EEST):
No AIRMET is currently available for this location.
SIGMET - Significant Meteorological Information
LTCF - Kars,
Updated at 2:50 PM GMT on September 04, 2015 (5:50 PM EEST):
No SIGMET is currently available for this location.
NOTAM - Notice to Airmen
LTCF - Kars,
Updated at 2:50 PM GMT on September 04, 2015 (5:50 PM EEST):
No NOTAM is currently available for this location.
Forecast Area
LTCF - Kars,
Updated at 2:50 PM GMT on September 04, 2015 (5:50 PM EEST):
No NOTAM is currently available for this location.
Aviation Weather Maps